Share

Tiptonville, TN

KTNUNION3 Elev 354 ft | 36.41 °N, 89.05 °W | Change Station

Current weather conditions updated 5 minutes ago

Clear
Clear
46.8 °F
Feels Like 47 °F
N
0.0
Wind Variable Wind from ESE
Gusts 1.0 mph
Sunrise 6:21 AM
Sunset 7:33 PM
Moon Waning Gibbous

Today is forecast to be Much Warmer than yesterday.

Pressure 30.19 in
Visibility 10.0 miles
Clouds Clear
Windchill 47 °F
Dew Point 34 °F
Humidity 61%
Rainfall 0.00 in
Snow Depth Not available.
UV 0 out of 16
Pollen 8.90 out of 12
Air Quality Not available.
Flu Activity Local Activity
METAR KDYR 170455Z 15004KT 10SM CLR 09/M02 A3019 RMK AO1

More Conditions Fewer Conditions

Pressure 30.19 in
Visibility 10.0 miles
Clouds Clear
Windchill 47 °F
Dew Point 34 °F
Humidity 61%
Rainfall 0.00 in
Snow Depth Not available.
UV 0 out of 16
Pollen 8.90 out of 12
Air Quality Not available.
Flu Activity Local Activity
METAR KDYR 170455Z 15004KT 10SM CLR 09/M02 A3019 RMK AO1

More Conditions Fewer Conditions

10-Day Forecast

Almanac

Astronomy

Apr. 17, 2014 Rise Set
Actual Time 6:21 AM CDT 7:33 PM CDT
Civil Twilight 5:55 AM CDT 8:00 PM CDT
Nautical Twilight 5:23 AM CDT 8:32 PM CDT
Astronomical Twilight 4:50 AM CDT 9:05 PM CDT
Moon 10:15 PM CDT 7:56 AM CDT
Length of Visible Light 14h 05m
Length of Day
13h 12m
Tomorrow will be 2m 10s longer.
Waning Gibbous, 96% of the Moon is Illuminated
Today
Waning Gibbous
Apr 22
Last Quarter
Apr 29
New
May 6
First Quarter
May 14
Full

Today's Extremes

State Highs State Lows

Community

  • symphony in blue....
    symphony in blue....
  • Dawn Surprise
    Dawn Surprise
  • Yucca delight
    Yucca delight
  • Sunset inside of the Ocean
    Sunset inside of the Ocean
  • Lunar eclipse 15 April 2014
    Lunar eclipse 15 April 2014

WunderPhotos

Upload Photos

1,701,858 photos uploaded!

WunderBlogs® & News

Nearby

Snow Depth

Station Depth Elevation
No new snow has been reported.

Coastal Water Temperatures

Place Temperature
No Stations Reporting

Earthquake Activity

City Distance Mag. Time & Date
No recent earthquake activity has been reported nearby.
Minimum magnitude displayed is 2.5.

Nearby Weather Stations

Station Location Temp. Windchill Dew Point Humidity Wind Precip. Elev Updated Type
Union City, TN 46.8 °F 47 °F 34 °F 61% ESE  at  0.0 mph 0.00 in / hr 354 ft 12:10 AM CDT Normal

Show More Stations Show Fewer Stations

What do you think?

We're not finished. Please let us know what you like, what you don't like, and what you are still missing.